Time;durP1;ratioP1;P1;durP2;ratioP2;P2;SDS_P1;SDS_P2;PMS_P1;PMS_P2;Temp;Humidity;BMP_temperature;BMP_pressure;BME280_temperature;BME280_humidity;BME280_pressure;Samples;Min_cycle;Max_cycle;Signal;HPM_P1;HPM_P2
2022/01/14 00:01:36;;;;;;;65.27;27.03;;;;;;;;;;5047711;28;20021;-74
2022/01/14 00:04:02;;;;;;;92.60;31.67;;;4.10;99.90;;;;;;5048277;28;20033;-74
2022/01/14 00:06:28;;;;;;;81.77;30.27;;;;;;;;;;5047822;28;20104;-74
2022/01/14 00:09:04;;;;;;;89.63;31.63;;;4.00;99.90;;;;;;5047538;28;20036;-74
2022/01/14 00:11:31;;;;;;;82.80;31.07;;;4.00;99.90;;;;;;5030176;28;20481;-74
2022/01/14 00:16:32;;;;;;;90.50;32.33;;;4.00;99.90;;;;;;5048039;28;20051;-74
2022/01/14 00:18:58;;;;;;;103.97;33.70;;;4.00;99.90;;;;;;5048298;28;20036;-74
2022/01/14 00:21:25;;;;;;;72.00;31.37;;;4.10;99.90;;;;;;5047510;28;20402;-74
2022/01/14 00:23:53;;;;;;;73.43;29.57;;;3.90;99.90;;;;;;5047300;28;20032;-74
2022/01/14 00:31:54;;;;;;;96.80;32.08;;;3.90;99.90;;;;;;5049930;28;20444;-74
2022/01/14 00:34:20;;;;;;;100.80;35.63;;;;;;;;;;5051827;28;20068;-74
2022/01/14 00:36:46;;;;;;;62.40;24.80;;;4.10;99.90;;;;;;5051232;28;20064;-74
2022/01/14 00:39:13;;;;;;;79.57;29.37;;;4.00;99.90;;;;;;5051218;28;20031;-74
2022/01/14 00:41:40;;;;;;;95.40;33.10;;;4.10;99.90;;;;;;5051597;28;20028;-74
2022/01/14 00:44:10;;;;;;;103.13;33.60;;;4.00;99.90;;;;;;5051419;28;20068;-74
2022/01/14 00:46:37;;;;;;;95.43;35.23;;;4.20;99.90;;;;;;5051447;28;20127;-74
2022/01/14 00:49:03;;;;;;;89.17;33.13;;;4.10;99.90;;;;;;5051651;28;20704;-74
2022/01/14 00:51:29;;;;;;;150.90;40.27;;;;;;;;;;5050788;28;20028;-74
2022/01/14 00:53:55;;;;;;;76.63;30.73;;;4.20;99.90;;;;;;5051220;28;20025;-74
2022/01/14 01:01:34;;;;;;;100.72;36.38;;;3.70;99.90;;;;;;5051206;28;20067;-73
2022/01/14 01:04:00;;;;;;;76.33;30.47;;;4.20;99.90;;;;;;5051387;28;20482;-73
2022/01/14 01:06:26;;;;;;;115.40;38.80;;;4.10;99.90;;;;;;5050402;28;20056;-73
2022/01/14 01:08:54;;;;;;;74.03;30.90;;;;;;;;;;5050826;28;20521;-73
2022/01/14 01:11:25;;;;;;;68.77;28.13;;;;;;;;;;5050714;28;20092;-73
2022/01/14 01:14:01;;;;;;;68.73;29.90;;;4.10;99.90;;;;;;5048678;28;20025;-73
2022/01/14 01:16:27;;;;;;;82.13;29.37;;;4.10;99.90;;;;;;5050614;28;20040;-73
2022/01/14 01:18:52;;;;;;;119.40;36.53;;;4.60;99.90;;;;;;5051193;28;20573;-73
2022/01/14 01:21:18;;;;;;;88.30;31.50;;;4.30;99.90;;;;;;5050320;28;20140;-73
2022/01/14 01:23:43;;;;;;;83.30;32.47;;;4.20;99.90;;;;;;5050472;28;20459;-73
2022/01/14 01:26:30;;;;;;;82.73;31.83;;;4.10;99.90;;;;;;5051052;28;20056;-73
2022/01/14 01:29:03;;;;;;;76.63;29.60;;;;;;;;;;5028185;28;20040;-73
2022/01/14 01:31:36;;;;;;;105.37;36.00;;;;;;;;;;5049715;28;20033;-73
2022/01/14 01:34:16;;;;;;;80.90;32.60;;;4.10;99.90;;;;;;5050701;28;20062;-73
2022/01/14 01:36:46;;;;;;;127.23;38.17;;;4.00;99.90;;;;;;5049860;28;20067;-73
2022/01/14 01:39:14;;;;;;;94.67;35.03;;;4.10;99.90;;;;;;5050709;28;20017;-73
2022/01/14 01:41:42;;;;;;;108.13;36.30;;;4.30;99.90;;;;;;5050340;28;20020;-73
2022/01/14 01:44:09;;;;;;;87.77;33.40;;;4.30;99.90;;;;;;5049926;28;20494;-73
2022/01/14 01:46:42;;;;;;;78.30;31.70;;;4.10;99.90;;;;;;5050303;28;20356;-73
2022/01/14 01:49:09;;;;;;;121.67;38.50;;;4.10;99.90;;;;;;5049246;28;20020;-73
2022/01/14 01:51:35;;;;;;;93.20;33.73;;;4.20;99.90;;;;;;5050010;28;20036;-73
2022/01/14 01:54:01;;;;;;;89.13;33.07;;;4.30;99.90;;;;;;5050752;28;20021;-73
2022/01/14 01:56:27;;;;;;;100.00;36.63;;;4.10;99.90;;;;;;5050231;28;20028;-73
2022/01/14 01:58:53;;;;;;;106.10;36.73;;;3.90;99.90;;;;;;5037328;28;20021;-73
2022/01/14 02:01:18;;;;;;;120.13;41.23;;;4.20;99.90;;;;;;5033255;28;20421;-73
2022/01/14 02:03:44;;;;;;;138.87;40.03;;;;;;;;;;5029745;28;20029;-73
2022/01/14 02:06:10;;;;;;;96.30;34.17;;;4.10;99.90;;;;;;5030610;28;20155;-73
2022/01/14 02:08:36;;;;;;;110.23;36.87;;;;;;;;;;5030167;28;20029;-73
2022/01/14 02:11:02;;;;;;;87.43;31.83;;;4.10;99.90;;;;;;5030586;28;20529;-73
2022/01/14 02:13:30;;;;;;;98.30;34.97;;;4.10;99.90;;;;;;5029877;28;20095;-73
2022/01/14 02:18:41;;;;;;;94.23;34.53;;;4.20;99.90;;;;;;5049447;28;20053;-73
2022/01/14 02:24:08;;;;;;;79.67;32.37;;;4.00;99.90;;;;;;5049798;28;20067;-73
2022/01/14 02:26:47;;;;;;;100.13;33.97;;;4.00;99.90;;;;;;5049770;28;20025;-72
2022/01/14 02:29:13;;;;;;;88.57;34.33;;;3.90;99.90;;;;;;5030363;28;20359;-73
2022/01/14 02:31:39;;;;;;;95.63;34.03;;;;;;;;;;5049601;28;20032;-73
2022/01/14 02:34:05;;;;;;;118.37;36.43;;;;;;;;;;5049348;28;20032;-73
2022/01/14 02:36:32;;;;;;;82.10;33.47;;;3.90;99.90;;;;;;5049327;28;20112;-73
2022/01/14 02:38:58;;;;;;;123.40;39.27;;;;;;;;;;5032037;28;20508;-73
2022/01/14 02:41:24;;;;;;;94.30;35.53;;;3.90;99.90;;;;;;5049392;28;20053;-73
2022/01/14 02:43:50;;;;;;;71.90;29.83;;;;;;;;;;5035882;28;20068;-73
2022/01/14 02:46:16;;;;;;;90.20;34.63;;;3.90;99.90;;;;;;5029818;28;20061;-73
2022/01/14 02:48:42;;;;;;;90.03;33.93;;;;;;;;;;5028868;28;20423;-73
2022/01/14 02:51:11;;;;;;;91.67;33.67;;;3.90;99.90;;;;;;5029589;28;20056;-73
2022/01/14 02:56:05;;;;;;;104.50;35.37;;;4.10;99.90;;;;;;5029467;28;20407;-73
2022/01/14 02:58:34;;;;;;;81.80;33.60;;;3.90;99.90;;;;;;5039555;28;20041;-73
2022/01/14 03:01:04;;;;;;;76.07;32.13;;;4.00;99.90;;;;;;5049587;28;20058;-73
2022/01/14 03:03:31;;;;;;;92.33;32.93;;;3.90;99.90;;;;;;5048583;28;20047;-73
2022/01/14 03:05:57;;;;;;;93.93;30.40;;;;;;;;;;5048973;28;20032;-73
2022/01/14 03:08:23;;;;;;;95.53;35.80;;;3.90;99.90;;;;;;5046956;28;20497;-73
2022/01/14 03:11:09;;;;;;;87.13;32.37;;;3.80;99.90;;;;;;5047160;28;20493;-73
2022/01/14 03:13:36;;;;;;;88.20;34.60;;;3.90;99.90;;;;;;5036093;28;20051;-73
2022/01/14 03:16:03;;;;;;;100.27;36.37;;;3.80;99.90;;;;;;5027417;28;20108;-73
2022/01/14 03:18:45;;;;;;;122.13;37.83;;;;;;;;;;5027250;28;20536;-73
2022/01/14 03:21:13;;;;;;;102.43;35.87;;;;;;;;;;5027458;28;20380;-73
2022/01/14 03:23:47;;;;;;;94.90;33.93;;;3.80;99.90;;;;;;5028300;28;20116;-73
2022/01/14 03:26:19;;;;;;;126.27;36.03;;;3.80;99.90;;;;;;5029290;28;20036;-73
2022/01/14 03:28:46;;;;;;;89.13;36.13;;;3.90;99.90;;;;;;5040457;28;20389;-73
2022/01/14 03:31:11;;;;;;;94.90;34.67;;;3.70;99.90;;;;;;5048638;28;20025;-73
2022/01/14 03:33:37;;;;;;;75.80;32.07;;;3.80;99.90;;;;;;5048353;28;20449;-73
2022/01/14 03:36:05;;;;;;;79.47;31.07;;;3.70;99.90;;;;;;5048492;28;20214;-73
2022/01/14 03:38:30;;;;;;;95.83;36.33;;;3.70;99.90;;;;;;5048514;28;20027;-73
2022/01/14 03:40:56;;;;;;;75.27;33.33;;;;;;;;;;5030928;28;20029;-73
2022/01/14 03:43:22;;;;;;;104.13;36.40;;;;;;;;;;5039307;28;20049;-73
2022/01/14 03:45:50;;;;;;;139.47;42.53;;;3.90;99.90;;;;;;5028742;28;20472;-73
2022/01/14 03:48:16;;;;;;;79.90;29.60;;;3.80;99.90;;;;;;5028981;28;20021;-73
2022/01/14 03:50:42;;;;;;;95.70;34.07;;;;;;;;;;5028601;28;20485;-73
2022/01/14 03:53:10;;;;;;;96.13;35.67;;;4.00;99.90;;;;;;5011121;28;20029;-73
2022/01/14 03:55:37;;;;;;;115.07;38.70;;;3.80;99.90;;;;;;5028461;28;20033;-73
2022/01/14 03:58:03;;;;;;;99.70;36.70;;;4.00;99.90;;;;;;5034748;28;20051;-73
2022/01/14 04:00:30;;;;;;;110.40;35.40;;;;;;;;;;5030061;28;20543;-73
2022/01/14 04:02:56;;;;;;;87.60;32.23;;;4.00;99.90;;;;;;5048777;28;20029;-73
2022/01/14 04:05:22;;;;;;;81.47;32.47;;;;;;;;;;5031135;28;20492;-73
2022/01/14 04:07:47;;;;;;;110.77;36.23;;;3.80;99.90;;;;;;5052893;28;20029;-73
2022/01/14 04:10:13;;;;;;;95.93;33.80;;;4.00;99.90;;;;;;5034695;28;20040;-73
2022/01/14 04:12:47;;;;;;;80.77;33.53;;;3.90;99.90;;;;;;5049548;28;20029;-73
2022/01/14 04:17:59;;;;;;;128.00;36.53;;;3.90;99.90;;;;;;5032812;28;20040;-73
2022/01/14 04:20:25;;;;;;;142.73;39.77;;;3.80;99.90;;;;;;5036587;28;20029;-73
2022/01/14 04:22:51;;;;;;;94.53;35.23;;;3.90;99.90;;;;;;5048196;28;20160;-73
2022/01/14 04:25:17;;;;;;;124.47;39.70;;;3.90;99.90;;;;;;5032466;28;20052;-73
2022/01/14 04:27:43;;;;;;;109.07;38.43;;;3.90;99.90;;;;;;5032532;28;20045;-74
2022/01/14 04:30:09;;;;;;;143.63;42.73;;;3.80;99.90;;;;;;5031815;28;20064;-74
2022/01/14 04:32:35;;;;;;;108.67;39.23;;;3.60;99.90;;;;;;5032051;28;20040;-73
2022/01/14 04:35:00;;;;;;;78.60;32.77;;;3.70;99.90;;;;;;5032428;28;20029;-74
2022/01/14 04:37:26;;;;;;;106.47;35.30;;;;;;;;;;5031715;28;20079;-73
2022/01/14 04:39:52;;;;;;;141.30;42.33;;;3.70;99.90;;;;;;5050971;28;20021;-73
2022/01/14 04:42:18;;;;;;;121.30;37.53;;;;;;;;;;5051861;28;20422;-73
2022/01/14 04:44:44;;;;;;;78.00;30.50;;;;;;;;;;5051315;28;20033;-73
2022/01/14 04:47:18;;;;;;;82.07;30.77;;;;;;;;;;5051775;28;20025;-74
2022/01/14 04:49:44;;;;;;;85.30;33.10;;;3.90;99.90;;;;;;5051564;28;20029;-73
2022/01/14 04:52:10;;;;;;;104.47;35.77;;;3.70;99.90;;;;;;5051698;28;20029;-73
2022/01/14 04:54:36;;;;;;;116.07;35.70;;;;;;;;;;5035963;28;20099;-73
2022/01/14 04:57:02;;;;;;;129.30;40.60;;;;;;;;;;5031843;28;20108;-73
2022/01/14 04:59:27;;;;;;;107.93;37.57;;;3.80;99.90;;;;;;5030690;28;20026;-73
2022/01/14 05:01:56;;;;;;;103.37;34.23;;;;;;;;;;5031805;28;20030;-73
2022/01/14 05:04:22;;;;;;;92.70;35.87;;;;;;;;;;5030878;28;20037;-73
2022/01/14 05:06:55;;;;;;;103.47;33.23;;;;;;;;;;5031922;28;20374;-73
2022/01/14 05:09:28;;;;;;;104.93;35.40;;;4.00;99.90;;;;;;5044502;28;20057;-73
2022/01/14 05:11:58;;;;;;;90.73;33.83;;;4.00;99.90;;;;;;5051788;28;20033;-73
2022/01/14 05:14:24;;;;;;;101.33;33.80;;;3.80;99.90;;;;;;5050216;28;20119;-73
2022/01/14 05:16:49;;;;;;;125.47;37.43;;;3.80;99.90;;;;;;5051034;28;20100;-73
2022/01/14 05:19:16;;;;;;;82.97;31.93;;;3.90;99.90;;;;;;5051068;28;20029;-73
2022/01/14 05:21:41;;;;;;;80.90;32.40;;;3.90;99.90;;;;;;5050903;28;20372;-73
2022/01/14 05:24:07;;;;;;;112.17;35.30;;;3.80;99.90;;;;;;5051147;28;20371;-72
2022/01/14 05:26:32;;;;;;;115.93;38.17;;;3.80;99.90;;;;;;5033513;28;20398;-72
2022/01/14 05:28:58;;;;;;;82.77;31.43;;;;;;;;;;5031319;28;20382;-72
2022/01/14 05:32:04;;;;;;;96.23;33.77;;;3.90;99.90;;;;;;5030482;28;20025;-72
2022/01/14 05:34:30;;;;;;;105.87;34.80;;;4.00;99.90;;;;;;4950451;29;20028;-72
2022/01/14 05:36:56;;;;;;;110.40;35.80;;;;;;;;;;4950914;29;20047;-72
2022/01/14 05:39:23;;;;;;;100.73;36.63;;;;;;;;;;4950036;29;20458;-73
2022/01/14 05:41:49;;;;;;;92.70;32.43;;;4.00;99.90;;;;;;4950446;29;20062;-72
2022/01/14 05:44:15;;;;;;;69.73;29.70;;;3.90;99.90;;;;;;4950163;29;20071;-72
2022/01/14 05:46:40;;;;;;;83.40;31.23;;;4.00;99.90;;;;;;4950049;29;20073;-72
2022/01/14 05:49:06;;;;;;;86.03;31.03;;;;;;;;;;4950011;29;20043;-72
2022/01/14 05:51:32;;;;;;;108.13;36.00;;;4.00;99.90;;;;;;4949821;29;20035;-72
2022/01/14 05:53:58;;;;;;;82.97;31.83;;;3.90;99.90;;;;;;4950112;29;20043;-73
2022/01/14 05:56:24;;;;;;;130.40;35.60;;;3.90;99.90;;;;;;4948926;29;20130;-73
2022/01/14 05:58:50;;;;;;;85.87;33.23;;;;;;;;;;4950236;29;20038;-73
2022/01/14 06:01:15;;;;;;;67.10;27.40;;;;;;;;;;4949825;29;20040;-73
2022/01/14 06:03:41;;;;;;;83.03;31.13;;;4.10;99.90;;;;;;4949576;29;20072;-73
2022/01/14 06:06:07;;;;;;;87.30;30.83;;;;;;;;;;4947179;28;20572;-73
2022/01/14 06:08:33;;;;;;;86.10;33.87;;;4.00;99.90;;;;;;5000019;28;20052;-73
2022/01/14 06:10:58;;;;;;;93.53;34.80;;;3.90;99.90;;;;;;5049649;28;20021;-73
2022/01/14 06:13:24;;;;;;;82.73;29.40;;;4.10;99.90;;;;;;5049368;28;20238;-73
2022/01/14 06:15:49;;;;;;;69.37;29.07;;;4.10;99.90;;;;;;5050065;28;20204;-73
2022/01/14 06:18:15;;;;;;;60.17;27.37;;;;;;;;;;5049862;28;20102;-73
2022/01/14 06:20:42;;;;;;;88.93;31.77;;;4.00;99.90;;;;;;5048959;28;20071;-73
2022/01/14 06:23:07;;;;;;;105.23;35.07;;;4.00;99.90;;;;;;5049647;28;20059;-73
2022/01/14 06:25:33;;;;;;;72.73;29.50;;;4.10;99.90;;;;;;5046664;28;20478;-73
2022/01/14 06:27:59;;;;;;;72.90;27.40;;;;;;;;;;5031136;28;20037;-73
2022/01/14 06:30:24;;;;;;;110.83;35.50;;;4.10;99.90;;;;;;5048152;28;20036;-73
2022/01/14 06:32:54;;;;;;;56.00;25.97;;;4.10;99.90;;;;;;5043248;28;20033;-73
2022/01/14 06:35:20;;;;;;;71.23;31.70;;;;;;;;;;5048887;28;20025;-73
2022/01/14 06:37:46;;;;;;;114.00;37.00;;;4.00;99.90;;;;;;5031484;28;20098;-72
2022/01/14 06:40:12;;;;;;;88.67;35.27;;;4.00;99.90;;;;;;5048208;28;20033;-73
2022/01/14 06:42:38;;;;;;;98.57;32.00;;;4.00;99.90;;;;;;5049007;28;20116;-73
2022/01/14 06:45:05;;;;;;;113.27;35.50;;;4.20;99.90;;;;;;5049282;28;20103;-73
2022/01/14 06:47:31;;;;;;;90.17;31.67;;;;;;;;;;5048990;28;20021;-73
2022/01/14 06:49:57;;;;;;;97.17;32.73;;;4.00;99.90;;;;;;5049124;28;20029;-73
2022/01/14 06:52:23;;;;;;;120.27;33.13;;;;;;;;;;5030854;28;20074;-73
2022/01/14 06:54:48;;;;;;;87.70;29.30;;;4.10;99.90;;;;;;5030715;28;20025;-73
2022/01/14 06:57:14;;;;;;;88.43;29.87;;;4.00;99.90;;;;;;5049596;28;20032;-73
2022/01/14 06:59:40;;;;;;;175.37;38.60;;;3.80;99.90;;;;;;5048882;28;20067;-73
2022/01/14 07:02:06;;;;;;;128.43;36.67;;;4.40;99.90;;;;;;5049093;28;20044;-73
2022/01/14 07:04:31;;;;;;;130.00;35.13;;;;;;;;;;5048982;28;20059;-73
2022/01/14 07:06:57;;;;;;;78.43;30.43;;;3.70;99.90;;;;;;5049637;28;20021;-72
2022/01/14 07:09:23;;;;;;;97.20;33.07;;;;;;;;;;5048381;28;20028;-73
2022/01/14 07:11:53;;;;;;;82.07;30.63;;;4.00;99.90;;;;;;5049557;28;20033;-73
2022/01/14 07:14:19;;;;;;;82.60;29.03;;;3.90;99.90;;;;;;5049253;28;20036;-73
2022/01/14 07:16:45;;;;;;;106.80;32.03;;;3.80;99.90;;;;;;5029843;28;20029;-73
2022/01/14 07:19:12;;;;;;;56.37;26.77;;;4.00;99.90;;;;;;5029358;28;20087;-73
2022/01/14 07:21:39;;;;;;;150.77;36.97;;;4.30;99.90;;;;;;5027376;28;20057;-74
2022/01/14 07:24:05;;;;;;;78.60;30.23;;;;;;;;;;5027088;28;20029;-73
2022/01/14 07:26:30;;;;;;;74.30;30.47;;;4.00;99.90;;;;;;5028876;28;20025;-73
2022/01/14 07:28:56;;;;;;;114.40;35.43;;;;;;;;;;5029326;28;20112;-74
2022/01/14 07:31:22;;;;;;;131.80;34.90;;;4.20;99.90;;;;;;5028702;28;20053;-73
2022/01/14 07:33:47;;;;;;;148.33;38.77;;;3.70;99.90;;;;;;5029316;28;20033;-74
2022/01/14 07:36:13;;;;;;;80.03;29.33;;;;;;;;;;5029112;28;20075;-73
2022/01/14 07:38:39;;;;;;;115.97;35.67;;;4.00;99.90;;;;;;5028215;28;20879;-73
2022/01/14 07:41:05;;;;;;;82.20;31.67;;;;;;;;;;5030385;28;20796;-74
2022/01/14 07:43:30;;;;;;;88.63;31.73;;;3.90;99.90;;;;;;5048699;28;20045;-74
2022/01/14 07:45:56;;;;;;;97.60;32.33;;;;;;;;;;5048845;28;20064;-73
2022/01/14 07:48:22;;;;;;;84.20;31.50;;;3.90;99.90;;;;;;5048026;28;20394;-73
2022/01/14 07:50:49;;;;;;;94.20;32.70;;;4.00;99.90;;;;;;5048932;28;20108;-73
2022/01/14 07:53:15;;;;;;;85.80;32.27;;;;;;;;;;5048201;28;20025;-73
2022/01/14 07:55:41;;;;;;;89.87;29.70;;;3.90;99.90;;;;;;5041024;28;20034;-73
2022/01/14 07:58:07;;;;;;;64.90;30.07;;;;;;;;;;5028610;28;20025;-73
2022/01/14 08:00:35;;;;;;;78.47;30.63;;;3.90;99.90;;;;;;5028496;28;20073;-73
2022/01/14 08:03:01;;;;;;;117.07;34.50;;;;;;;;;;5028823;28;20030;-73
2022/01/14 08:05:27;;;;;;;77.27;29.13;;;;;;;;;;5028347;28;20036;-73
2022/01/14 08:07:56;;;;;;;71.50;29.33;;;3.90;99.90;;;;;;5026923;28;20034;-74
2022/01/14 08:10:22;;;;;;;77.50;30.57;;;;;;;;;;5033333;28;20139;-73
2022/01/14 08:12:47;;;;;;;79.30;32.10;;;3.90;99.90;;;;;;5048683;28;20032;-73
2022/01/14 08:15:13;;;;;;;107.07;33.30;;;3.90;99.90;;;;;;5030644;28;20028;-73
2022/01/14 08:17:39;;;;;;;86.23;31.93;;;3.70;99.90;;;;;;5048310;28;20033;-73
2022/01/14 08:20:06;;;;;;;79.00;29.87;;;3.90;99.90;;;;;;5048097;28;20033;-73
2022/01/14 08:22:33;;;;;;;99.30;32.53;;;3.50;99.90;;;;;;5043854;28;20040;-73
2022/01/14 08:24:59;;;;;;;89.33;32.50;;;;;;;;;;5044314;28;20553;-73
2022/01/14 08:27:26;;;;;;;70.00;27.50;;;3.90;99.90;;;;;;5040328;28;20045;-74
2022/01/14 08:29:52;;;;;;;75.30;30.27;;;3.90;99.90;;;;;;5037297;28;20021;-70
2022/01/14 08:32:18;;;;;;;64.97;28.63;;;3.90;99.90;;;;;;5042227;28;20037;-70
2022/01/14 08:34:43;;;;;;;65.10;30.13;;;3.90;99.90;;;;;;5046140;28;20385;-71
2022/01/14 08:37:09;;;;;;;56.30;26.97;;;4.10;99.90;;;;;;5046481;28;20478;-70
2022/01/14 08:39:35;;;;;;;94.43;33.30;;;;;;;;;;5034916;28;20029;-71
2022/01/14 08:42:02;;;;;;;84.63;31.63;;;4.10;99.90;;;;;;5025296;28;20025;-70
2022/01/14 08:44:28;;;;;;;61.00;29.23;;;;;;;;;;5040112;28;20037;-71
2022/01/14 08:46:55;;;;;;;116.10;35.07;;;4.20;99.90;;;;;;5046349;28;20087;-71
2022/01/14 08:49:21;;;;;;;72.97;26.17;;;4.30;99.90;;;;;;5046124;28;20025;-70
2022/01/14 08:51:49;;;;;;;68.03;25.93;;;4.10;99.90;;;;;;5046563;28;20032;-71
2022/01/14 08:54:15;;;;;;;73.60;28.23;;;;;;;;;;5042425;28;20025;-71
2022/01/14 08:56:41;;;;;;;79.53;30.37;;;4.20;99.90;;;;;;5036698;28;20041;-71
2022/01/14 08:59:06;;;;;;;70.53;29.20;;;4.10;99.90;;;;;;5038832;28;20028;-71
2022/01/14 09:01:32;;;;;;;64.13;29.53;;;;;;;;;;5050841;28;20021;-71
2022/01/14 09:03:58;;;;;;;69.73;30.20;;;;;;;;;;5042626;28;20029;-71
2022/01/14 09:06:24;;;;;;;82.07;32.47;;;;;;;;;;5049276;28;20033;-71
2022/01/14 09:08:50;;;;;;;74.57;31.47;;;4.40;99.90;;;;;;5050967;28;20497;-71
2022/01/14 09:11:16;;;;;;;74.00;29.37;;;4.30;99.90;;;;;;5050219;28;20471;-71
2022/01/14 09:13:42;;;;;;;60.93;25.97;;;;;;;;;;5050343;28;20033;-71
2022/01/14 09:16:07;;;;;;;80.70;28.60;;;4.30;99.90;;;;;;5050840;28;20082;-71
2022/01/14 09:18:33;;;;;;;70.73;30.03;;;;;;;;;;5050052;28;20025;-71
2022/01/14 09:20:59;;;;;;;63.70;29.73;;;;;;;;;;5050721;28;20167;-71
2022/01/14 09:23:25;;;;;;;50.70;25.00;;;4.30;99.90;;;;;;5049787;28;20554;-71
2022/01/14 09:25:54;;;;;;;73.20;27.07;;;4.50;99.90;;;;;;5050859;28;20506;-71
2022/01/14 09:28:20;;;;;;;76.87;30.77;;;;;;;;;;5031690;28;20087;-71
2022/01/14 09:30:46;;;;;;;59.30;25.83;;;4.40;99.90;;;;;;5050542;28;20497;-71
2022/01/14 09:33:12;;;;;;;60.63;27.10;;;4.40;99.90;;;;;;5041004;28;20048;-71
2022/01/14 09:35:40;;;;;;;53.07;25.60;;;4.60;99.90;;;;;;5035138;28;20036;-72
2022/01/14 09:38:06;;;;;;;63.03;27.07;;;;;;;;;;5036285;28;20123;-71
2022/01/14 09:40:32;;;;;;;61.00;24.27;;;4.50;99.90;;;;;;5032210;28;20029;-71
2022/01/14 09:43:00;;;;;;;63.37;28.30;;;;;;;;;;5034688;28;20037;-71
2022/01/14 09:45:28;;;;;;;60.40;28.30;;;4.40;99.90;;;;;;5033673;28;20044;-71
2022/01/14 09:47:55;;;;;;;55.77;26.50;;;4.60;99.90;;;;;;5037875;28;20021;-71
2022/01/14 09:50:21;;;;;;;70.93;29.13;;;4.50;99.90;;;;;;5033150;28;20026;-72
2022/01/14 09:52:49;;;;;;;71.90;29.37;;;4.70;99.90;;;;;;5032897;28;20037;-71
2022/01/14 09:55:16;;;;;;;52.87;25.47;;;4.50;99.90;;;;;;5035779;28;20083;-71
2022/01/14 09:57:42;;;;;;;67.60;30.30;;;4.60;99.90;;;;;;5035156;28;20034;-71
2022/01/14 10:00:08;;;;;;;52.37;24.60;;;4.60;99.90;;;;;;5033401;28;20379;-71
2022/01/14 10:02:43;;;;;;;49.93;24.43;;;4.80;99.90;;;;;;5048244;28;20044;-71
2022/01/14 10:05:29;;;;;;;60.23;27.97;;;4.80;99.90;;;;;;5049677;28;20037;-71
2022/01/14 10:08:19;;;;;;;58.97;28.57;;;4.50;99.90;;;;;;5035986;28;20044;-72
2022/01/14 10:10:59;;;;;;;66.17;28.77;;;4.70;99.90;;;;;;5049193;28;20017;-71
2022/01/14 10:13:33;;;;;;;57.13;26.23;;;4.70;99.90;;;;;;5032394;28;20037;-71
2022/01/14 10:16:02;;;;;;;69.68;32.33;;;4.60;99.90;;;;;;5042836;28;20029;-71
2022/01/14 10:18:28;;;;;;;74.50;28.93;;;4.60;99.90;;;;;;5042609;28;20112;-71
2022/01/14 10:21:01;;;;;;;69.20;30.60;;;4.70;99.90;;;;;;5049475;28;20045;-71
2022/01/14 10:23:48;;;;;;;70.20;30.40;;;4.60;99.90;;;;;;5035928;28;20037;-71
2022/01/14 10:26:15;;;;;;;53.20;26.30;;;4.80;99.90;;;;;;5034447;28;20025;-71
2022/01/14 10:28:46;;;;;;;50.67;27.13;;;4.50;99.90;;;;;;5034152;28;20840;-71
2022/01/14 10:31:13;;;;;;;66.93;29.23;;;4.70;99.90;;;;;;5048995;28;20029;-71
2022/01/14 10:33:38;;;;;;;64.53;30.13;;;4.90;99.90;;;;;;5048479;28;20030;-72
2022/01/14 10:36:04;;;;;;;55.47;29.30;;;4.80;99.90;;;;;;5049375;28;20048;-72
2022/01/14 10:38:46;;;;;;;61.50;29.77;;;4.70;99.90;;;;;;5049123;28;20036;-72
2022/01/14 10:41:11;;;;;;;60.03;28.27;;;4.70;99.90;;;;;;5049073;28;20025;-72
2022/01/14 10:43:38;;;;;;;63.07;29.50;;;4.80;99.90;;;;;;5048924;28;20048;-72
2022/01/14 10:46:06;;;;;;;61.27;29.63;;;4.80;99.90;;;;;;5048521;28;20023;-73
2022/01/14 10:48:32;;;;;;;59.77;27.63;;;;;;;;;;5048751;28;20029;-72
2022/01/14 10:51:00;;;;;;;54.10;26.97;;;5.10;99.90;;;;;;5043703;28;20087;-72
2022/01/14 10:53:35;;;;;;;50.67;28.30;;;4.70;99.90;;;;;;5048171;28;20041;-72
2022/01/14 10:56:12;;;;;;;52.97;28.03;;;5.00;99.90;;;;;;5048947;28;20013;-72
2022/01/14 10:58:43;;;;;;;54.10;27.93;;;4.90;99.90;;;;;;5048652;28;20021;-72
2022/01/14 11:01:20;;;;;;;44.37;22.97;;;4.00;99.90;;;;;;5047080;28;20020;-72
2022/01/14 11:04:00;;;;;;;51.03;25.00;;;5.00;99.90;;;;;;5048253;28;20060;-72
2022/01/14 11:06:34;;;;;;;62.70;28.63;;;5.00;99.90;;;;;;5046888;28;20068;-72
2022/01/14 11:09:04;;;;;;;53.53;28.53;;;4.80;99.90;;;;;;5040838;28;20025;-72
2022/01/14 11:11:35;;;;;;;52.50;29.37;;;5.20;99.90;;;;;;5048354;28;20029;-72
2022/01/14 11:14:01;;;;;;;55.63;27.97;;;;;;;;;;5030769;28;20385;-72
2022/01/14 11:16:27;;;;;;;49.77;26.87;;;5.10;99.90;;;;;;5047010;28;20121;-72
2022/01/14 11:18:57;;;;;;;56.97;28.07;;;5.10;99.90;;;;;;5047876;28;20626;-72
2022/01/14 11:24:12;;;;;;;;;;;5.50;99.90;;;;;;5043795;28;20056;-72
2022/01/14 11:26:39;;;;;;;46.47;26.63;;;5.00;99.90;;;;;;5023618;28;19908;-72
2022/01/14 11:29:09;;;;;;;52.13;28.17;;;5.00;99.90;;;;;;5047880;28;20041;-72
2022/01/14 11:31:37;;;;;;;56.03;29.53;;;5.10;99.90;;;;;;5047896;28;20508;-72
2022/01/14 11:34:09;;;;;;;56.50;28.90;;;5.10;99.90;;;;;;5046459;28;20045;-72
2022/01/14 11:37:16;;;;;;;60.67;30.87;;;5.20;99.90;;;;;;5029961;28;20454;-72
2022/01/14 11:39:55;;;;;;;60.87;29.50;;;5.10;99.90;;;;;;4986880;28;20026;-72
2022/01/14 11:42:37;;;;;;;49.03;28.47;;;5.60;99.90;;;;;;4986570;28;20027;-72
2022/01/14 11:45:05;;;;;;;52.17;27.10;;;5.30;99.90;;;;;;4983736;28;20050;-72
2022/01/14 11:47:39;;;;;;;62.27;30.77;;;5.20;99.90;;;;;;4983151;28;20033;-72
2022/01/14 11:50:27;;;;;;;51.30;27.10;;;5.60;99.90;;;;;;4987223;28;20503;-72
2022/01/14 11:52:53;;;;;;;58.13;30.77;;;5.20;99.90;;;;;;4980399;28;20022;-72
2022/01/14 11:55:21;;;;;;;67.13;32.97;;;5.30;99.90;;;;;;4987113;28;20388;-72
2022/01/14 11:58:02;;;;;;;58.20;28.90;;;5.30;99.90;;;;;;4986860;28;20557;-71
2022/01/14 12:00:33;;;;;;;60.03;30.67;;;5.20;99.90;;;;;;4970197;28;20018;-72
2022/01/14 12:03:25;;;;;;;64.90;31.27;;;5.20;99.90;;;;;;4987102;28;20034;-72
2022/01/14 12:05:53;;;;;;;54.17;28.43;;;;;;;;;;4987068;28;20082;-72
2022/01/14 12:08:23;;;;;;;50.40;27.63;;;5.30;99.90;;;;;;4985794;28;20037;-72
2022/01/14 12:10:50;;;;;;;55.63;29.97;;;5.30;99.90;;;;;;5023329;28;20410;-72
2022/01/14 12:13:28;;;;;;;43.97;24.53;;;5.40;99.90;;;;;;5040700;28;20107;-72
2022/01/14 12:16:02;;;;;;;52.70;26.43;;;5.40;99.90;;;;;;5045272;28;20028;-72
2022/01/14 12:19:00;;;;;;;53.97;28.10;;;5.50;99.90;;;;;;5043621;28;20032;-73
2022/01/14 12:21:38;;;;;;;45.47;28.27;;;5.40;99.90;;;;;;5042895;28;20052;-72
2022/01/14 12:24:19;;;;;;;50.73;26.40;;;5.30;99.90;;;;;;5047482;28;20095;-72
2022/01/14 12:27:08;;;;;;;49.00;26.03;;;5.40;99.90;;;;;;5037478;28;20033;-73
2022/01/14 12:29:40;;;;;;;47.10;26.23;;;5.50;99.90;;;;;;5028101;28;20029;-73
2022/01/14 12:32:06;;;;;;;51.93;28.37;;;;;;;;;;5051740;28;20021;-72
2022/01/14 12:34:44;;;;;;;50.23;29.30;;;5.70;99.90;;;;;;5047273;28;20079;-72
2022/01/14 12:37:21;;;;;;;48.70;26.97;;;5.70;99.90;;;;;;5037385;28;20048;-72
2022/01/14 12:39:48;;;;;;;47.57;25.83;;;5.90;99.90;;;;;;5038005;28;20071;-72
2022/01/14 12:42:14;;;;;;;46.17;25.63;;;;;;;;;;5031749;28;20025;-72
2022/01/14 12:44:45;;;;;;;50.87;25.80;;;5.60;99.90;;;;;;5033658;28;20402;-71
2022/01/14 12:47:18;;;;;;;47.73;26.80;;;;;;;;;;5018353;28;20075;-72
2022/01/14 12:49:44;;;;;;;47.80;26.55;;;;;;;;;;5035383;28;20037;-72
2022/01/14 12:52:17;;;;;;;52.73;23.97;;;5.60;99.90;;;;;;5033739;28;20025;-72
2022/01/14 12:54:46;;;;;;;48.23;26.70;;;5.80;99.90;;;;;;5038320;28;20025;-72
2022/01/14 12:57:17;;;;;;;42.67;25.47;;;5.70;99.90;;;;;;5050543;28;20104;-73
2022/01/14 12:59:48;;;;;;;43.80;24.23;;;5.60;99.90;;;;;;5051078;28;20037;-72
2022/01/14 13:02:25;;;;;;;49.17;26.37;;;5.70;99.90;;;;;;5051143;28;20025;-71
2022/01/14 13:05:08;;;;;;;43.83;24.47;;;6.00;99.90;;;;;;5051022;28;20115;-72
2022/01/14 13:07:36;;;;;;;48.50;26.10;;;5.80;99.90;;;;;;5050168;28;20028;-72
2022/01/14 13:10:03;;;;;;;56.17;28.87;;;5.70;99.90;;;;;;5051114;28;20025;-72
2022/01/14 13:12:34;;;;;;;51.17;26.27;;;5.40;99.90;;;;;;5049977;28;20405;-72
2022/01/14 13:15:03;;;;;;;48.00;26.83;;;5.70;99.90;;;;;;5040737;28;20096;-73
2022/01/14 13:17:35;;;;;;;51.33;28.40;;;5.70;99.90;;;;;;5032776;28;20021;-71
2022/01/14 13:20:08;;;;;;;45.40;26.17;;;5.60;99.90;;;;;;5032863;28;20036;-71
2022/01/14 13:22:34;;;;;;;41.47;23.47;;;6.10;99.90;;;;;;5037151;28;20041;-72
2022/01/14 13:25:06;;;;;;;42.33;26.40;;;5.70;99.90;;;;;;5039683;28;20037;-72
2022/01/14 13:27:39;;;;;;;41.23;25.17;;;5.70;99.90;;;;;;5034147;28;20071;-72
2022/01/14 13:30:09;;;;;;;32.53;21.53;;;5.80;99.90;;;;;;5045878;28;20383;-72
2022/01/14 13:32:36;;;;;;;42.87;24.37;;;5.80;99.90;;;;;;5050249;28;20049;-72